Time;durP1;ratioP1;P1;durP2;ratioP2;P2;SDS_P1;SDS_P2;PMS_P1;PMS_P2;Temp;Humidity;BMP_temperature;BMP_pressure;BME280_temperature;BME280_humidity;BME280_pressure;Samples;Min_cycle;Max_cycle;Signal;HPM_P1;HPM_P2
2021/09/14 01:43:58;;;;;;;;;;;;;;;;;;;;;
2021/09/14 01:59:30;;;;;;;13.05;11.20;;;13.90;99.90;;;;;;5064566;28;20885;-88
2021/09/14 02:08:38;;;;;;;17.42;14.05;;;13.80;99.90;;;;;;5066508;28;20045;-88
2021/09/14 03:01:22;;;;;;;24.95;19.10;;;13.70;99.90;;;;;;5057057;28;20194;-88
2021/09/14 03:04:14;;;;;;;26.63;19.73;;;13.70;99.90;;;;;;5051891;28;20327;-90
2021/09/14 03:07:01;;;;;;;32.00;21.70;;;13.70;99.90;;;;;;5049867;28;20378;-88
2021/09/14 03:09:49;;;;;;;29.63;21.02;;;13.70;99.90;;;;;;5046388;28;20037;-89
2021/09/14 03:12:37;;;;;;;29.63;21.65;;;13.80;99.90;;;;;;5052409;28;20140;-88
2021/09/14 03:15:24;;;;;;;30.70;22.63;;;13.90;99.90;;;;;;5047033;28;20052;-88
2021/09/14 03:18:14;;;;;;;29.58;22.33;;;13.90;99.90;;;;;;5037966;28;20186;-89
2021/09/14 03:21:07;;;;;;;27.20;22.02;;;14.00;99.90;;;;;;5033217;28;20057;-88
2021/09/14 03:23:55;;;;;;;28.30;21.58;;;14.00;99.90;;;;;;5043452;28;20515;-87
2021/09/14 03:26:45;;;;;;;27.42;21.25;;;14.10;99.90;;;;;;5042704;28;20153;-87
2021/09/14 03:29:34;;;;;;;24.55;20.50;;;14.20;99.90;;;;;;5047386;28;20080;-88
2021/09/14 03:32:21;;;;;;;25.92;20.20;;;14.20;99.90;;;;;;5046531;28;20041;-88
2021/09/14 03:35:13;;;;;;;28.02;19.38;;;14.20;99.90;;;;;;5049381;28;20042;-88
2021/09/14 03:38:05;;;;;;;18.40;15.85;;;14.20;99.90;;;;;;5043287;28;20092;-88
2021/09/14 03:40:52;;;;;;;19.85;16.95;;;14.10;99.90;;;;;;5038978;28;20040;-87
2021/09/14 03:43:42;;;;;;;18.00;16.15;;;14.00;99.90;;;;;;5044857;28;20188;-87
2021/09/14 03:46:29;;;;;;;20.45;15.63;;;14.00;99.90;;;;;;5040661;28;20115;-88
2021/09/14 03:49:17;;;;;;;19.67;17.58;;;14.00;99.90;;;;;;5057507;28;20164;-90
2021/09/14 03:52:07;;;;;;;23.70;17.55;;;13.90;99.90;;;;;;5051317;28;20103;-88
2021/09/14 03:54:54;;;;;;;22.15;17.45;;;13.90;99.90;;;;;;5038943;28;20053;-88
2021/09/14 03:57:41;;;;;;;27.13;19.20;;;13.90;99.90;;;;;;5039465;28;20053;-87
2021/09/14 04:00:31;;;;;;;22.15;18.80;;;14.00;99.90;;;;;;5050960;28;20079;-88
2021/09/14 04:03:58;;;;;;;19.42;16.83;;;13.90;99.90;;;;;;5048002;28;20052;-88
2021/09/14 04:07:21;;;;;;;24.50;18.10;;;13.90;99.90;;;;;;5053310;28;20105;-90
2021/09/14 04:10:09;;;;;;;24.58;19.13;;;13.90;99.90;;;;;;5025512;28;20054;-89
2021/09/14 04:12:59;;;;;;;26.13;18.88;;;13.90;99.90;;;;;;5039859;28;20037;-89
2021/09/14 04:15:46;;;;;;;24.00;18.55;;;13.90;99.90;;;;;;5020809;28;20120;-88
2021/09/14 04:18:36;;;;;;;25.45;19.63;;;13.90;99.90;;;;;;5025714;28;20064;-90
2021/09/14 04:21:23;;;;;;;25.88;19.23;;;13.90;99.90;;;;;;5050280;28;20078;-88
2021/09/14 04:24:14;;;;;;;24.13;19.05;;;13.90;99.90;;;;;;5044621;28;20041;-88
2021/09/14 04:27:01;;;;;;;27.80;19.10;;;14.00;99.90;;;;;;5049595;28;20059;-88
2021/09/14 04:29:50;;;;;;;29.55;19.80;;;14.00;99.90;;;;;;5051002;28;20072;-88
2021/09/14 04:32:40;;;;;;;25.25;18.83;;;14.00;99.90;;;;;;5053062;28;20249;-87
2021/09/14 04:35:27;;;;;;;20.65;16.98;;;14.00;99.90;;;;;;5035206;28;20076;-89
2021/09/14 04:38:15;;;;;;;20.05;17.17;;;13.90;99.90;;;;;;5038847;28;20343;-87
2021/09/14 04:41:04;;;;;;;24.58;19.25;;;13.90;99.90;;;;;;5043356;28;20441;-88
2021/09/14 04:43:52;;;;;;;24.52;20.00;;;13.80;99.90;;;;;;5049072;28;20090;-88
2021/09/14 04:46:39;;;;;;;26.98;20.50;;;13.90;99.90;;;;;;5039428;28;20167;-89
2021/09/14 04:49:32;;;;;;;25.17;20.85;;;13.80;99.90;;;;;;5049386;28;20119;-90
2021/09/14 04:52:19;;;;;;;27.27;20.88;;;13.80;99.90;;;;;;5042108;28;20085;-88
2021/09/14 04:55:09;;;;;;;24.30;19.48;;;13.80;99.90;;;;;;5052083;28;20128;-88
2021/09/14 04:57:56;;;;;;;25.85;19.10;;;13.70;99.90;;;;;;5033719;28;20049;-90
2021/09/14 05:00:46;;;;;;;24.85;20.67;;;13.70;99.90;;;;;;5046120;28;20195;-89
2021/09/14 05:03:40;;;;;;;21.92;18.27;;;13.60;99.90;;;;;;5044820;28;20186;-89
2021/09/14 05:06:33;;;;;;;26.27;20.00;;;13.50;99.90;;;;;;5037749;28;20052;-89
2021/09/14 05:09:23;;;;;;;31.77;21.58;;;13.60;99.90;;;;;;5052361;28;20173;-91
2021/09/14 05:12:10;;;;;;;32.05;21.88;;;13.60;99.90;;;;;;5043957;28;20082;-91
2021/09/14 05:15:02;;;;;;;22.90;19.48;;;13.60;99.90;;;;;;5050430;28;20041;-91
2021/09/14 05:17:54;;;;;;;27.25;19.58;;;13.60;99.90;;;;;;5051729;28;20188;-90
2021/09/14 05:20:42;;;;;;;28.90;20.02;;;13.70;99.90;;;;;;5046462;28;20045;-89
2021/09/14 05:23:32;;;;;;;26.48;19.13;;;13.70;99.90;;;;;;5048338;28;20523;-89
2021/09/14 05:26:26;;;;;;;24.30;19.83;;;13.80;99.90;;;;;;5057493;28;20045;-89
2021/09/14 05:29:14;;;;;;;25.95;18.55;;;13.80;99.90;;;;;;5050362;28;20461;-91
2021/09/14 05:32:02;;;;;;;22.63;17.90;;;13.90;99.90;;;;;;5048822;28;20051;-91
2021/09/14 05:34:51;;;;;;;20.83;15.35;;;13.90;99.90;;;;;;5048487;28;20052;-88
2021/09/14 05:37:40;;;;;;;19.23;15.73;;;14.10;99.90;;;;;;5035327;28;20090;-90
2021/09/14 05:40:30;;;;;;;16.73;14.40;;;14.20;99.90;;;;;;5031319;28;20099;-89
2021/09/14 05:43:17;;;;;;;18.83;13.48;;;14.40;99.90;;;;;;5050365;28;20055;-90
2021/09/14 05:46:07;;;;;;;16.70;13.18;;;14.50;99.90;;;;;;5054924;28;20149;-88
2021/09/14 05:48:54;;;;;;;14.65;11.98;;;14.60;99.90;;;;;;5057074;28;20096;-87
2021/09/14 05:51:42;;;;;;;13.75;11.43;;;14.80;99.90;;;;;;5039269;28;20107;-88
2021/09/14 05:54:29;;;;;;;14.23;10.60;;;14.80;99.90;;;;;;5053159;28;20110;-88
2021/09/14 05:57:17;;;;;;;11.95;10.60;;;14.90;99.90;;;;;;5047688;28;20087;-88
2021/09/14 06:00:05;;;;;;;12.18;10.38;;;15.10;99.90;;;;;;5051779;28;20053;-87
2021/09/14 06:02:54;;;;;;;14.82;10.80;;;15.20;99.90;;;;;;5050473;28;20143;-88
2021/09/14 06:05:44;;;;;;;13.02;10.85;;;15.30;99.90;;;;;;5050520;28;20063;-88
2021/09/14 06:08:33;;;;;;;10.82;9.70;;;15.40;99.90;;;;;;5050002;28;20098;-87
2021/09/14 06:11:24;;;;;;;11.63;9.65;;;15.50;99.90;;;;;;5031235;28;20049;-89
2021/09/14 06:14:13;;;;;;;12.15;9.98;;;15.60;99.90;;;;;;5034716;28;20113;-88
2021/09/14 06:17:01;;;;;;;11.35;9.48;;;15.80;99.90;;;;;;5043704;28;20186;-89
2021/09/14 06:19:51;;;;;;;11.55;9.13;;;15.90;99.90;;;;;;5037722;28;20041;-87
2021/09/14 06:22:39;;;;;;;14.13;9.02;;;16.00;99.90;;;;;;5035014;28;20242;-87
2021/09/14 06:25:29;;;;;;;9.52;8.23;;;16.20;99.90;;;;;;5033062;28;20056;-88
2021/09/14 06:28:16;;;;;;;13.07;9.02;;;16.30;99.90;;;;;;5041410;28;20038;-87
2021/09/14 06:31:06;;;;;;;9.73;7.82;;;16.40;99.90;;;;;;5048031;28;20512;-88
2021/09/14 06:33:55;;;;;;;11.18;7.85;;;16.60;99.90;;;;;;5037315;28;20057;-88
2021/09/14 06:36:45;;;;;;;9.85;7.90;;;16.90;99.90;;;;;;5046440;28;20052;-88
2021/09/14 06:39:33;;;;;;;8.73;7.18;;;17.00;99.90;;;;;;5041698;28;20183;-88
2021/09/14 06:42:20;;;;;;;12.52;6.60;;;17.40;99.90;;;;;;5036772;28;20072;-88
2021/09/14 06:45:12;;;;;;;9.27;6.82;;;17.80;99.90;;;;;;5051000;28;20037;-88
2021/09/14 06:48:09;;;;;;;7.07;6.38;;;18.40;99.90;;;;;;5034808;28;20430;-89
2021/09/14 06:50:59;;;;;;;9.30;6.28;;;18.70;99.90;;;;;;5033574;28;20121;-86
2021/09/14 06:53:51;;;;;;;10.35;6.35;;;18.90;99.90;;;;;;5047794;28;20338;-89
2021/09/14 06:56:38;;;;;;;7.95;6.00;;;18.90;99.90;;;;;;5038170;28;20483;-88
2021/09/14 06:59:28;;;;;;;7.43;6.07;;;19.00;99.90;;;;;;5040939;28;20045;-89
2021/09/14 07:02:15;;;;;;;9.93;6.38;;;19.00;99.90;;;;;;5037777;28;20115;-88
2021/09/14 07:05:06;;;;;;;7.68;6.28;;;19.00;99.90;;;;;;5042336;28;20042;-88
2021/09/14 07:07:56;;;;;;;9.00;6.55;;;19.10;99.90;;;;;;5042617;28;20041;-89
2021/09/14 07:10:44;;;;;;;9.63;6.45;;;19.10;99.90;;;;;;5049692;28;20060;-88
2021/09/14 07:13:33;;;;;;;7.95;6.30;;;19.10;99.90;;;;;;5042881;28;20081;-87
2021/09/14 07:16:26;;;;;;;9.13;6.25;;;19.20;99.90;;;;;;5033112;28;20055;-87
2021/09/14 07:19:18;;;;;;;10.80;6.85;;;19.20;99.90;;;;;;5035054;28;20533;-87
2021/09/14 07:22:07;;;;;;;12.57;6.53;;;19.30;99.90;;;;;;5045534;28;20061;-88
2021/09/14 07:24:55;;;;;;;10.93;7.22;;;19.40;99.90;;;;;;5032627;28;20045;-87
2021/09/14 07:27:42;;;;;;;8.38;7.07;;;19.40;99.90;;;;;;5048298;28;20076;-88
2021/09/14 07:30:29;;;;;;;8.57;6.55;;;19.30;99.90;;;;;;5041550;28;20375;-87
2021/09/14 07:33:18;;;;;;;6.82;6.13;;;19.30;99.90;;;;;;5039145;28;20049;-89
2021/09/14 07:36:08;;;;;;;7.38;5.80;;;19.30;99.90;;;;;;5040489;28;20124;-88
2021/09/14 07:38:58;;;;;;;7.18;5.82;;;19.50;99.90;;;;;;5041701;28;20052;-88
2021/09/14 07:41:52;;;;;;;9.98;6.10;;;19.60;99.90;;;;;;5037705;28;20142;-88
2021/09/14 07:44:40;;;;;;;6.63;5.63;;;19.80;99.90;;;;;;5044019;28;20187;-87
2021/09/14 07:47:29;;;;;;;7.43;5.43;;;19.90;99.90;;;;;;5047882;28;20124;-88
2021/09/14 07:50:21;;;;;;;7.75;5.50;;;20.10;99.90;;;;;;5035372;28;20064;-88
2021/09/14 07:53:08;;;;;;;5.90;5.25;;;20.20;99.90;;;;;;5054727;28;20344;-88
2021/09/14 07:55:56;;;;;;;8.25;5.53;;;20.40;99.90;;;;;;5047706;28;20355;-88
2021/09/14 07:58:44;;;;;;;5.72;5.00;;;20.70;99.90;;;;;;5046648;28;20053;-87
2021/09/14 08:01:31;;;;;;;5.93;4.80;;;21.10;99.90;;;;;;5045648;28;20056;-88
2021/09/14 08:04:21;;;;;;;5.93;4.80;;;21.80;99.90;;;;;;5045976;28;20045;-88
2021/09/14 08:07:08;;;;;;;7.03;4.80;;;22.60;99.90;;;;;;5054525;28;20114;-89
2021/09/14 08:09:56;;;;;;;6.80;4.10;;;23.10;99.90;;;;;;5049583;28;20052;-88
2021/09/14 08:12:44;;;;;;;6.63;4.80;;;23.90;99.90;;;;;;5036223;28;20076;-91
2021/09/14 08:15:38;;;;;;;4.70;3.75;;;24.40;99.00;;;;;;5041162;28;20056;-88
2021/09/14 08:18:29;;;;;;;6.97;4.22;;;24.70;97.80;;;;;;5035796;28;20049;-89
2021/09/14 08:21:22;;;;;;;6.30;4.22;;;24.70;96.50;;;;;;5055242;28;20056;-89
2021/09/14 08:24:11;;;;;;;9.93;4.75;;;24.80;95.00;;;;;;5043115;28;20148;-89
2021/09/14 08:27:02;;;;;;;6.00;4.47;;;25.00;94.80;;;;;;5055839;28;20057;-86
2021/09/14 08:29:51;;;;;;;8.25;4.57;;;25.50;93.50;;;;;;5045755;28;20126;-89
2021/09/14 08:32:42;;;;;;;6.20;4.28;;;25.20;92.70;;;;;;5065928;28;20132;-89
2021/09/14 08:35:29;;;;;;;6.80;4.95;;;25.20;92.20;;;;;;5063038;28;20049;-90
2021/09/14 08:38:20;;;;;;;8.05;4.90;;;25.20;92.60;;;;;;5057831;28;20095;-87
2021/09/14 08:41:07;;;;;;;8.02;4.70;;;25.10;92.20;;;;;;5037077;28;20073;-87
2021/09/14 08:43:57;;;;;;;9.68;4.82;;;25.40;92.60;;;;;;5058447;28;20044;-90
2021/09/14 08:46:45;;;;;;;7.50;4.75;;;25.90;89.90;;;;;;5046052;28;20395;-89
2021/09/14 08:49:36;;;;;;;6.32;4.60;;;25.90;88.90;;;;;;5053783;28;20146;-90
2021/09/14 08:52:25;;;;;;;9.40;4.20;;;26.00;88.60;;;;;;5054832;28;20217;-90
2021/09/14 08:55:14;;;;;;;5.97;4.38;;;26.50;87.20;;;;;;5050410;28;20061;-91
2021/09/14 08:58:06;;;;;;;6.75;4.13;;;27.10;83.70;;;;;;5052602;28;20064;-89
2021/09/14 09:00:56;;;;;;;5.05;3.85;;;27.00;83.60;;;;;;5038018;28;20157;-90
2021/09/14 09:03:58;;;;;;;7.15;4.22;;;27.30;83.20;;;;;;5052885;28;20071;-89
2021/09/14 09:06:45;;;;;;;6.75;3.85;;;27.80;78.90;;;;;;5031888;28;20163;-89
2021/09/14 09:09:34;;;;;;;6.43;4.55;;;28.20;77.60;;;;;;5039146;28;20148;-89
2021/09/14 09:12:21;;;;;;;5.75;4.53;;;28.40;75.90;;;;;;5039349;28;20057;-88
2021/09/14 09:15:22;;;;;;;7.60;4.50;;;28.50;76.60;;;;;;5038115;28;20056;-89
2021/09/14 09:18:15;;;;;;;6.60;3.97;;;28.50;74.50;;;;;;5031412;28;20033;-89
2021/09/14 09:21:05;;;;;;;6.80;4.05;;;28.70;72.40;;;;;;5046279;28;20103;-88
2021/09/14 09:24:06;;;;;;;6.95;4.35;;;28.60;73.90;;;;;;5037386;28;20084;-89
2021/09/14 09:26:54;;;;;;;4.65;4.10;;;28.20;74.00;;;;;;5040516;28;20045;-87
2021/09/14 09:29:43;;;;;;;7.22;4.15;;;28.20;74.30;;;;;;5046246;28;20119;-89
2021/09/14 09:32:49;;;;;;;7.15;3.83;;;28.30;75.90;;;;;;5031345;28;20148;-89
2021/09/14 09:35:42;;;;;;;5.13;3.90;;;28.50;72.80;;;;;;5042247;28;20084;-89
2021/09/14 09:38:51;;;;;;;7.80;4.05;;;28.60;73.20;;;;;;5050357;28;20091;-88
2021/09/14 09:41:53;;;;;;;7.03;4.13;;;29.10;71.50;;;;;;5050320;28;20045;-87
2021/09/14 09:45:00;;;;;;;6.68;3.72;;;29.50;70.10;;;;;;5036589;28;20056;-88
2021/09/14 09:47:48;;;;;;;6.03;4.00;;;29.80;67.80;;;;;;5040838;28;20080;-88
2021/09/14 09:50:38;;;;;;;6.25;3.70;;;29.60;68.70;;;;;;5052008;28;20106;-89
2021/09/14 09:53:28;;;;;;;6.88;4.03;;;29.50;69.00;;;;;;5050135;28;20048;-89
2021/09/14 09:56:15;;;;;;;7.22;3.65;;;29.90;67.80;;;;;;5051408;28;20087;-88
2021/09/14 09:59:05;;;;;;;5.97;3.55;;;30.20;66.30;;;;;;5033917;28;20381;-87
2021/09/14 10:02:29;;;;;;;5.20;3.75;;;30.50;65.40;;;;;;5031016;28;20045;-88
2021/09/14 10:05:19;;;;;;;4.55;3.85;;;30.50;65.10;;;;;;5037149;28;20088;-89
2021/09/14 10:08:11;;;;;;;6.28;3.63;;;30.40;64.90;;;;;;5040661;28;20390;-87
2021/09/14 10:11:05;;;;;;;5.55;3.80;;;30.10;64.80;;;;;;5050965;28;20148;-86
2021/09/14 10:14:07;;;;;;;7.15;3.97;;;29.60;66.30;;;;;;5050917;28;20095;-89
2021/09/14 10:17:06;;;;;;;6.03;3.88;;;29.40;67.60;;;;;;5042323;28;20509;-89
2021/09/14 10:19:59;;;;;;;6.60;3.90;;;28.90;67.00;;;;;;5039770;28;20098;-88
2021/09/14 10:23:05;;;;;;;6.75;3.60;;;28.80;70.10;;;;;;5052295;28;20085;-88
2021/09/14 10:26:11;;;;;;;9.07;3.80;;;29.10;69.80;;;;;;5053109;28;20041;-89
2021/09/14 10:29:01;;;;;;;6.38;3.60;;;29.70;66.60;;;;;;5054638;28;20112;-88
2021/09/14 10:32:03;;;;;;;5.93;3.72;;;29.50;66.10;;;;;;5046707;28;20037;-87
2021/09/14 10:34:55;;;;;;;5.32;3.60;;;29.40;67.60;;;;;;5058780;28;20191;-88
2021/09/14 10:37:42;;;;;;;5.32;3.60;;;29.90;66.50;;;;;;5050505;28;20052;-89
2021/09/14 10:40:38;;;;;;;5.78;4.00;;;30.10;65.40;;;;;;5049379;28;20041;-90
2021/09/14 10:43:37;;;;;;;4.70;3.53;;;30.10;65.70;;;;;;5050894;28;20049;-88
2021/09/14 10:46:31;;;;;;;6.32;3.55;;;30.50;63.80;;;;;;5035509;28;20111;-90
2021/09/14 10:49:23;;;;;;;9.50;3.65;;;30.70;62.50;;;;;;5035019;28;20130;-87
2021/09/14 10:52:12;;;;;;;5.32;3.05;;;30.70;61.60;;;;;;5052323;28;20382;-90
2021/09/14 10:55:06;;;;;;;7.47;3.85;;;31.10;60.70;;;;;;5053877;28;20178;-88
2021/09/14 10:58:01;;;;;;;4.50;3.00;;;31.50;59.70;;;;;;5042900;28;20490;-87
2021/09/14 11:00:49;;;;;;;6.68;3.55;;;31.30;59.40;;;;;;5048702;28;20363;-87
2021/09/14 11:03:37;;;;;;;7.10;3.20;;;31.20;59.40;;;;;;5047602;28;20455;-87
2021/09/14 11:06:28;;;;;;;5.60;3.90;;;30.70;59.80;;;;;;5080057;28;20378;-88
2021/09/14 11:09:17;;;;;;;4.50;3.33;;;30.20;61.00;;;;;;5046678;28;20056;-88
2021/09/14 11:12:18;;;;;;;5.03;3.65;;;29.90;61.40;;;;;;5033953;28;20041;-89
2021/09/14 11:15:05;;;;;;;4.07;3.63;;;29.50;62.10;;;;;;5070242;28;20088;-90
2021/09/14 11:17:55;;;;;;;6.05;3.42;;;29.50;62.10;;;;;;5039165;28;20045;-88
2021/09/14 11:20:42;;;;;;;4.38;3.08;;;30.00;61.20;;;;;;5052319;28;20094;-88
2021/09/14 11:23:33;;;;;;;5.15;3.28;;;29.80;60.30;;;;;;5071175;28;20083;-88
2021/09/14 11:26:30;;;;;;;7.70;4.00;;;29.40;62.20;;;;;;5039020;28;20044;-88
2021/09/14 11:29:20;;;;;;;6.18;3.35;;;29.30;63.20;;;;;;5053849;28;20471;-91
2021/09/14 11:32:15;;;;;;;4.38;3.15;;;30.10;61.30;;;;;;5055216;28;20367;-89
2021/09/14 11:35:11;;;;;;;4.93;3.10;;;30.60;59.70;;;;;;5053741;28;20048;-90
2021/09/14 11:38:05;;;;;;;8.05;3.55;;;30.50;59.30;;;;;;5051692;28;20045;-89
2021/09/14 11:40:59;;;;;;;4.97;3.30;;;29.80;60.30;;;;;;5055569;28;20483;-89
2021/09/14 11:43:56;;;;;;;6.18;3.50;;;29.00;62.50;;;;;;5054521;28;20094;-88
2021/09/14 11:46:54;;;;;;;5.05;4.00;;;28.30;65.00;;;;;;5049839;28;20465;-88
2021/09/14 11:49:51;;;;;;;4.45;3.30;;;28.00;66.00;;;;;;5033037;28;20498;-89
2021/09/14 11:52:38;;;;;;;8.82;3.67;;;28.00;66.50;;;;;;5041928;28;20111;-88
2021/09/14 11:55:31;;;;;;;4.38;3.42;;;28.10;67.40;;;;;;5049502;28;20045;-88
2021/09/14 11:58:33;;;;;;;7.70;3.35;;;28.10;66.60;;;;;;5054704;28;20056;-88
2021/09/14 12:01:29;;;;;;;6.25;3.30;;;27.90;67.50;;;;;;5043870;28;20041;-90
2021/09/14 12:04:18;;;;;;;6.95;3.40;;;27.90;67.30;;;;;;5050747;28;20037;-89
2021/09/14 12:07:20;;;;;;;4.95;3.45;;;27.90;67.10;;;;;;5053169;28;20044;-92
2021/09/14 12:10:09;;;;;;;12.80;3.58;;;27.60;67.80;;;;;;5039466;28;20143;-87
2021/09/14 12:12:57;;;;;;;6.72;3.67;;;27.40;69.30;;;;;;5053473;28;20053;-89
2021/09/14 12:15:49;;;;;;;7.53;3.90;;;27.70;68.50;;;;;;5052326;28;20158;-89
2021/09/14 12:18:42;;;;;;;7.18;4.30;;;27.50;69.70;;;;;;5044931;28;20045;-90
2021/09/14 12:21:32;;;;;;;5.30;3.50;;;27.20;68.90;;;;;;5053799;28;20051;-88
2021/09/14 12:24:21;;;;;;;5.60;3.72;;;27.40;69.30;;;;;;5052801;28;20060;-87
2021/09/14 12:27:08;;;;;;;10.35;3.58;;;27.70;68.50;;;;;;5044907;28;20102;-89
2021/09/14 12:29:59;;;;;;;6.60;3.50;;;27.80;67.50;;;;;;5052484;28;20048;-87
2021/09/14 12:33:02;;;;;;;8.43;3.38;;;28.00;68.20;;;;;;5041250;28;20049;-88
2021/09/14 12:35:49;;;;;;;4.80;3.22;;;29.00;68.70;;;;;;5050353;28;20056;-89
2021/09/14 12:38:44;;;;;;;5.30;3.17;;;30.10;63.70;;;;;;5045064;28;20107;-89
2021/09/14 12:41:32;;;;;;;13.50;3.53;;;30.80;59.90;;;;;;5047750;28;20046;-89
2021/09/14 12:44:22;;;;;;;4.93;3.42;;;32.20;60.70;;;;;;5039031;28;20447;-87
2021/09/14 12:47:11;;;;;;;3.85;2.70;;;34.00;53.40;;;;;;5058307;28;20053;-86
2021/09/14 12:49:59;;;;;;;3.53;2.70;;;35.20;50.00;;;;;;5046261;28;20108;-87
2021/09/14 12:52:46;;;;;;;4.55;2.60;;;35.70;47.90;;;;;;5050735;28;20064;-89
2021/09/14 12:55:39;;;;;;;3.97;2.45;;;36.50;47.80;;;;;;5050044;28;20064;-87
2021/09/14 12:58:27;;;;;;;4.10;2.78;;;37.80;45.30;;;;;;5051682;28;20158;-86
2021/09/14 13:01:16;;;;;;;4.07;2.53;;;39.00;41.80;;;;;;5041842;28;20132;-85
2021/09/14 13:04:03;;;;;;;4.80;2.72;;;39.30;40.30;;;;;;5049225;28;20381;-86
2021/09/14 13:06:53;;;;;;;4.57;2.55;;;39.30;42.70;;;;;;5035751;28;20060;-88
2021/09/14 13:09:46;;;;;;;4.38;2.75;;;37.30;43.60;;;;;;5058986;28;20048;-86
2021/09/14 13:12:34;;;;;;;5.72;2.70;;;37.30;43.40;;;;;;5039385;28;20037;-86
2021/09/14 13:18:31;;;;;;;5.57;2.45;;;36.80;43.20;;;;;;5062210;28;20091;-88
2021/09/14 13:21:21;;;;;;;3.83;2.55;;;36.70;43.50;;;;;;5062471;28;20132;-86
2021/09/14 13:24:10;;;;;;;5.00;2.70;;;36.70;46.90;;;;;;5051805;28;20059;-86
2021/09/14 13:26:57;;;;;;;3.70;2.35;;;37.30;44.10;;;;;;5057915;28;20088;-87
2021/09/14 13:29:45;;;;;;;4.68;2.65;;;37.70;43.40;;;;;;5065017;28;20087;-87
2021/09/14 13:32:35;;;;;;;5.55;2.55;;;37.90;45.30;;;;;;5051766;28;20048;-87
2021/09/14 13:35:27;;;;;;;5.65;2.70;;;37.30;44.70;;;;;;5065075;28;20037;-87
2021/09/14 13:38:19;;;;;;;5.05;3.05;;;37.80;42.90;;;;;;5084681;28;20044;-87
2021/09/14 13:41:10;;;;;;;5.22;2.80;;;37.30;44.90;;;;;;5062235;28;20041;-87
2021/09/14 13:46:10;;;;;;;2.90;2.60;;;36.70;45.60;;;;;;5039904;28;20061;-89
2021/09/14 13:47:09;;;;;;;4.57;2.78;;;36.80;43.40;;;;;;5059836;28;20040;-88
2021/09/14 13:50:04;;;;;;;5.57;2.80;;;36.10;46.80;;;;;;5044265;28;20045;-87
2021/09/14 13:52:53;;;;;;;4.32;3.28;;;35.10;49.80;;;;;;5062399;28;20174;-87
2021/09/14 13:55:40;;;;;;;10.15;3.40;;;34.60;52.60;;;;;;5048070;28;20049;-87
2021/09/14 13:58:27;;;;;;;5.70;2.88;;;34.70;51.30;;;;;;5054586;28;20473;-86
2021/09/14 14:01:17;;;;;;;8.85;3.35;;;34.00;51.50;;;;;;5053914;28;20123;-87
2021/09/14 14:04:07;;;;;;;6.40;3.65;;;33.30;54.40;;;;;;5045244;28;20044;-88
2021/09/14 14:06:59;;;;;;;4.70;3.65;;;32.50;55.20;;;;;;5055598;28;20084;-87
2021/09/14 14:09:48;;;;;;;;;;;31.60;58.00;;;;;;5058216;28;20041;-86
2021/09/14 14:12:36;;;;;;;9.82;4.18;;;30.70;61.10;;;;;;5044088;28;20225;-87
2021/09/14 14:15:30;;;;;;;5.65;4.15;;;30.30;60.50;;;;;;5037424;28;20037;-86
2021/09/14 14:18:19;;;;;;;9.80;4.45;;;29.80;61.60;;;;;;5062086;28;20048;-87
2021/09/14 14:21:11;;;;;;;4.57;3.90;;;29.40;63.90;;;;;;5068152;28;20174;-86
2021/09/14 14:24:00;;;;;;;8.20;3.75;;;29.00;64.30;;;;;;5068179;28;20155;-86
2021/09/14 14:26:47;;;;;;;9.10;4.75;;;28.90;65.50;;;;;;5059874;28;20135;-86
2021/09/14 14:29:37;;;;;;;9.52;4.22;;;28.90;66.60;;;;;;5070463;28;20044;-86
2021/09/14 14:32:24;;;;;;;7.82;3.80;;;28.70;66.50;;;;;;5063350;28;20060;-86
2021/09/14 14:35:11;;;;;;;5.55;4.28;;;28.60;67.60;;;;;;5056855;28;20048;-86
2021/09/14 14:37:59;;;;;;;6.18;4.25;;;28.30;68.80;;;;;;5065371;28;20052;-86
2021/09/14 14:40:49;;;;;;;8.35;5.10;;;28.10;72.20;;;;;;5040957;28;20129;-85
2021/09/14 14:43:38;;;;;;;6.03;4.57;;;27.60;75.30;;;;;;5070410;28;20059;-87
2021/09/14 14:46:31;;;;;;;5.20;4.60;;;27.20;76.60;;;;;;5066687;28;20045;-87
2021/09/14 14:49:19;;;;;;;6.28;4.47;;;26.80;78.50;;;;;;5072083;28;20156;-86
2021/09/14 14:52:10;;;;;;;7.93;4.65;;;26.40;79.80;;;;;;5064554;28;20445;-87
2021/09/14 14:55:02;;;;;;;8.52;4.60;;;26.30;81.20;;;;;;5043203;28;20436;-87
2021/09/14 14:57:59;;;;;;;5.60;4.97;;;26.10;84.00;;;;;;5051201;28;20059;-88
2021/09/14 15:00:47;;;;;;;8.75;4.25;;;26.10;83.70;;;;;;5038460;28;20447;-87
2021/09/14 15:03:37;;;;;;;11.15;4.70;;;26.10;85.20;;;;;;5056907;28;20040;-87
2021/09/14 15:06:26;;;;;;;6.88;4.85;;;26.00;86.00;;;;;;5071675;28;20520;-89
2021/09/14 15:09:16;;;;;;;7.15;4.90;;;25.80;89.40;;;;;;5054303;28;20140;-88
2021/09/14 15:12:03;;;;;;;6.63;4.80;;;25.60;91.20;;;;;;5065754;28;20056;-88
2021/09/14 15:14:51;;;;;;;6.47;4.70;;;25.60;90.90;;;;;;5061589;28;20192;-87
2021/09/14 15:17:41;;;;;;;7.95;5.00;;;25.40;91.50;;;;;;5048867;28;20059;-87
2021/09/14 15:20:32;;;;;;;5.88;4.97;;;25.30;91.40;;;;;;5056581;28;20116;-89
2021/09/14 15:23:23;;;;;;;5.43;4.80;;;25.20;91.10;;;;;;5052060;28;20063;-87
2021/09/14 15:26:17;;;;;;;6.85;5.00;;;25.30;91.60;;;;;;5051218;28;20053;-88
2021/09/14 15:29:08;;;;;;;7.28;5.20;;;25.30;91.50;;;;;;5066794;28;20532;-90
2021/09/14 15:31:58;;;;;;;11.32;5.13;;;25.10;93.10;;;;;;5069257;28;20114;-88
2021/09/14 15:34:47;;;;;;;5.72;5.05;;;24.90;94.30;;;;;;5050174;28;20099;-88
2021/09/14 15:37:34;;;;;;;9.40;5.05;;;24.90;93.50;;;;;;5069837;28;20081;-89
2021/09/14 15:40:24;;;;;;;9.57;5.47;;;24.80;93.80;;;;;;5071555;28;20087;-88
2021/09/14 15:43:12;;;;;;;9.40;5.35;;;24.80;95.70;;;;;;5056073;28;20112;-87
2021/09/14 15:46:03;;;;;;;6.57;5.22;;;24.60;97.50;;;;;;5044051;28;20135;-87
2021/09/14 15:48:50;;;;;;;7.97;5.20;;;24.30;99.90;;;;;;5060952;28;20120;-88
2021/09/14 15:51:41;;;;;;;9.82;5.82;;;24.30;99.90;;;;;;5056630;28;20485;-86
2021/09/14 15:54:33;;;;;;;11.43;6.45;;;24.20;99.90;;;;;;5062876;28;20171;-86
2021/09/14 15:57:23;;;;;;;9.32;6.88;;;24.00;99.90;;;;;;5063498;28;20063;-88
2021/09/14 16:00:11;;;;;;;10.57;6.50;;;23.80;99.90;;;;;;5058980;28;20083;-87
2021/09/14 16:03:01;;;;;;;10.85;6.20;;;23.70;99.90;;;;;;5058398;28;20034;-87
2021/09/14 16:05:49;;;;;;;11.45;6.85;;;23.60;99.90;;;;;;5062344;28;20041;-88
2021/09/14 16:08:41;;;;;;;11.70;6.22;;;23.70;99.90;;;;;;5052478;28;20041;-87
2021/09/14 16:11:32;;;;;;;7.88;7.05;;;23.60;99.90;;;;;;5071171;28;20045;-88
2021/09/14 16:14:23;;;;;;;8.85;6.88;;;23.60;99.90;;;;;;5060410;28;20112;-88
2021/09/14 16:17:12;;;;;;;8.30;7.07;;;23.60;99.90;;;;;;5054500;28;20052;-86
2021/09/14 16:20:02;;;;;;;7.88;6.55;;;23.60;99.90;;;;;;5053008;28;20479;-87
2021/09/14 16:22:50;;;;;;;8.75;5.75;;;23.80;99.90;;;;;;5082724;28;20806;-87
2021/09/14 16:25:37;;;;;;;10.20;6.15;;;23.80;99.90;;;;;;5069598;28;20545;-88
2021/09/14 16:28:27;;;;;;;10.07;6.60;;;23.90;99.90;;;;;;5052893;28;20081;-87
2021/09/14 16:31:17;;;;;;;9.13;6.22;;;23.90;99.90;;;;;;5074454;28;20060;-87
2021/09/14 16:34:12;;;;;;;11.35;6.68;;;23.80;99.90;;;;;;5035558;28;20123;-86
2021/09/14 16:37:04;;;;;;;8.95;6.57;;;23.90;99.90;;;;;;5033971;28;20041;-88
2021/09/14 16:39:54;;;;;;;9.93;6.20;;;23.90;99.90;;;;;;5066880;28;20044;-87
2021/09/14 16:42:49;;;;;;;10.88;7.05;;;23.80;99.90;;;;;;5042534;28;20052;-87
2021/09/14 16:45:36;;;;;;;6.43;5.28;;;23.80;99.90;;;;;;5054322;28;20045;-87
2021/09/14 16:48:24;;;;;;;8.50;4.75;;;23.60;99.90;;;;;;5044473;28;20045;-87
2021/09/14 16:51:13;;;;;;;7.25;4.50;;;23.50;99.90;;;;;;5060662;28;20076;-87
2021/09/14 16:54:03;;;;;;;9.43;5.38;;;23.40;99.90;;;;;;5052620;28;20098;-87
2021/09/14 16:56:53;;;;;;;8.48;4.50;;;23.30;99.90;;;;;;5084748;28;20048;-86
2021/09/14 16:59:45;;;;;;;11.05;4.65;;;23.20;99.90;;;;;;5054255;28;20163;-88
2021/09/14 17:02:33;;;;;;;11.00;4.53;;;23.10;99.90;;;;;;5067381;28;20037;-87
2021/09/14 17:05:25;;;;;;;21.35;4.90;;;23.00;99.90;;;;;;5070785;28;20288;-87
2021/09/14 17:08:12;;;;;;;8.85;4.47;;;22.90;99.90;;;;;;5060902;28;20401;-87
2021/09/14 17:11:07;;;;;;;5.10;4.03;;;22.80;99.90;;;;;;5064220;28;20305;-87
2021/09/14 17:13:57;;;;;;;8.27;4.60;;;22.70;99.90;;;;;;5047656;28;20044;-87
2021/09/14 17:16:44;;;;;;;8.02;4.68;;;22.60;99.90;;;;;;5067388;28;20045;-89
2021/09/14 17:19:34;;;;;;;8.45;5.03;;;22.50;99.90;;;;;;5071989;28;20041;-88
2021/09/14 17:22:26;;;;;;;7.03;4.28;;;22.40;99.90;;;;;;5056956;28;20040;-87
2021/09/14 17:25:13;;;;;;;9.50;4.82;;;22.40;99.90;;;;;;5067800;28;20084;-88
2021/09/14 17:28:02;;;;;;;8.40;5.38;;;22.40;99.90;;;;;;5067213;28;20143;-87
2021/09/14 17:30:53;;;;;;;6.15;4.45;;;22.30;99.90;;;;;;5073391;28;20049;-87
2021/09/14 17:33:56;;;;;;;10.15;5.45;;;22.20;99.90;;;;;;5064736;28;20044;-89
2021/09/14 17:36:45;;;;;;;9.27;5.70;;;22.00;99.90;;;;;;5060853;28;20033;-87
2021/09/14 17:39:36;;;;;;;10.05;5.78;;;21.80;99.90;;;;;;5064934;28;20489;-87